Athens, OH

4:43 PM EST on February 27, 2017 (GMT -0500)
Longview Hts | | Change Station

Elev 981 ft 39.32 °N, 82.08 °W | Updated 11 seconds ago

Overcast
Overcast
45.3 °F
Feels Like 45 °F
N
0.2
Wind Variable Wind from SSE
Gusts 2.5 mph

Today
High -- | Low -- °F
--% Chance of Precip.
Yesterday
High -- | Low -- °F
Precip. -- in
Pressure 30.25 in
Visibility 10.0 miles
Clouds Overcast 9000 ft
Windchill 45 °F
Dew Point 44 °F
Humidity 95%
Rainfall 0.17 in
Snow Depth Not available.
7:03 AM 6:18 PM
New Moon, 2% visible
METAR KUNI 272130Z AUTO 09003KT 10SM OVC090 08/08 A3025 RMK AO2 T00780078
Pressure 30.25 in
Visibility 10.0 miles
Clouds Overcast 9000 ft
Windchill 45 °F
Dew Point 44 °F
Humidity 95%
Rainfall 0.17 in
Snow Depth Not available.
7:03 AM 6:18 PM
New Moon, 2% visible
METAR KUNI 272130Z AUTO 09003KT 10SM OVC090 08/08 A3025 RMK AO2 T00780078

Get Your Daily Forecast Email!

Thanks for signing up!

Be on the lookout for a verification email in your inbox.

You'll start receiving the daily forecast at 8 AM.

×

10-Day Weather Forecast

Almanac

Astronomy

Feb. 27, 2017 Rise Set
Actual Time
Civil Twilight
Nautical Twilight
Astronomical Twilight
Moon
Length of Visible Light
Length of Day
Tomorrow will be .
, % of the Moon is Illuminated

Today's Extremes

State Highs State Lows

Community

WunderPhotos

Upload Photos

1,962,540 photos uploaded!

WunderBlog® & News

Nearby

Air Quality

  Air Quality AQ Index Pollutant
Not available.

Snow Depth

Station Depth Elevation

Earthquake Activity

City Distance Mag. Time & Date
Minimum magnitude displayed is 2.5.

Coastal Water Temperatures

Place Temperature

Stations

Nearby Weather Stations

Station Location Temp. Windchill Dew Point Humidity Wind Precip. Elev Updated Type
                   

Watches & Warnings

There are currently no watches in effect.